Main page
METAR-TAF:

METAR-TAF

Airports :

Václav Havel Airport Prague

Prague, Czech Republic

latitude: 50-06N, longitude: 014-15E, elevation: 365 m

Current weather observation

The report was made 28 minutes ago, at 05:30 UTC
Wind 3 kt from the West, varying between Southwest and West/Northwest
Temperature 16°C
Humidity 68%
Pressure 1020 hPa
Visibility 10 km or more
no clouds below 1500 m and no cumulonimbus

METAR: LKPR 150530Z 26003KT 230V290 CAVOK 16/10 Q1020 NOSIG

Time: 07:58 (05:58 UTC)

Forecast

The report was made 58 minutes ago, at 05:00 UTC
Forecast valid from 15 at 06 UTC to 16 at 12 UTC
Wind 5 kt from the South/Southwest
Visibility 10 km or more
no clouds below 1500 m and no cumulonimbus
Becoming
from 15 at 06 UTC to 15 at 09 UTC
Wind 6 kt from the North/Northeast

TAF: LKPR 150500Z 1506/1612 21005KT CAVOK BECMG 1506/1509 02006KT

Weather observations and forecasts of more than 4000 airports (METAR and TAF reports).

The available stations are represented by yellow and red dots on the map.

Hover mouse over dot to see the name of the station.

Then click to see weather observations and forecasts.

To change the map : click on the green buttons with a black cross to zoom in, on the green button with a dash to zoom out, or on the green arrows for adjacent maps.


METAR-TAF: